Time;durP1;ratioP1;P1;durP2;ratioP2;P2;SDS_P1;SDS_P2;PMS_P1;PMS_P2;Temp;Humidity;BMP_temperature;BMP_pressure;BME280_temperature;BME280_humidity;BME280_pressure;Samples;Min_cycle;Max_cycle;Signal;HPM_P1;HPM_P2
2023/06/17 00:02:08;;;;;;;6.85;6.13;;;19.30;97.70;;;;;;5073069;28;20400;-50
2023/06/17 00:04:34;;;;;;;7.40;5.60;;;19.10;97.90;;;;;;5072972;28;20032;-52
2023/06/17 00:07:01;;;;;;;8.88;5.75;;;19.10;98.00;;;;;;5073035;28;20021;-49
2023/06/17 00:09:26;;;;;;;8.75;6.10;;;19.00;98.30;;;;;;5073304;28;20048;-52
2023/06/17 00:11:52;;;;;;;14.60;5.82;;;18.90;98.20;;;;;;5073017;28;20020;-53
2023/06/17 00:14:20;;;;;;;6.13;5.40;;;18.90;98.50;;;;;;5072404;28;20020;-49
2023/06/17 00:16:46;;;;;;;8.10;6.10;;;18.80;98.70;;;;;;5072764;28;20039;-49
2023/06/17 00:19:15;;;;;;;7.53;6.00;;;18.80;98.90;;;;;;5072340;28;20024;-49
2023/06/17 00:21:52;;;;;;;5.97;5.30;;;18.70;99.20;;;;;;5072960;28;20066;-51
2023/06/17 00:24:19;;;;;;;15.52;6.18;;;18.60;99.50;;;;;;5071392;28;20423;-51
2023/06/17 00:26:45;;;;;;;8.40;5.63;;;18.50;99.70;;;;;;5054811;28;20554;-52
2023/06/17 00:29:10;;;;;;;9.95;6.85;;;18.40;99.50;;;;;;5072856;28;20538;-51
2023/06/17 00:31:36;;;;;;;11.05;6.63;;;18.30;99.50;;;;;;5072715;28;20028;-50
2023/06/17 00:34:03;;;;;;;11.05;7.40;;;18.20;99.90;;;;;;5072402;28;20416;-51
2023/06/17 00:36:29;;;;;;;11.90;5.80;;;18.10;99.60;;;;;;5072413;28;20028;-52
2023/06/17 00:38:54;;;;;;;7.07;6.32;;;18.10;99.70;;;;;;5072523;28;20381;-55
2023/06/17 00:41:20;;;;;;;12.57;6.35;;;18.00;99.80;;;;;;5072523;28;20104;-53
2023/06/17 00:43:46;;;;;;;12.55;6.40;;;18.10;99.90;;;;;;5071845;28;20020;-52
2023/06/17 00:46:27;;;;;;;10.07;6.65;;;18.10;99.80;;;;;;5072228;28;20033;-51
2023/06/17 00:48:53;;;;;;;8.52;6.88;;;18.10;99.60;;;;;;5054475;28;20054;-50
2023/06/17 00:51:18;;;;;;;7.10;5.95;;;18.00;99.30;;;;;;5072544;28;20100;-52
2023/06/17 00:53:44;;;;;;;7.18;6.47;;;18.10;99.30;;;;;;5070855;28;20016;-48
2023/06/17 00:56:10;;;;;;;12.60;7.25;;;18.00;99.40;;;;;;5072106;28;20442;-48
2023/06/17 00:58:36;;;;;;;11.00;6.40;;;18.00;99.60;;;;;;5036656;28;20017;-51
2023/06/17 01:01:01;;;;;;;10.65;6.55;;;17.90;99.80;;;;;;5072118;28;20028;-51
2023/06/17 01:03:29;;;;;;;7.28;6.57;;;17.90;99.80;;;;;;5071735;28;20025;-51
2023/06/17 01:05:59;;;;;;;10.05;7.25;;;17.90;99.80;;;;;;5071665;28;20056;-54
2023/06/17 01:08:33;;;;;;;14.55;6.47;;;17.90;99.70;;;;;;5072019;28;20028;-51
2023/06/17 01:11:13;;;;;;;8.32;7.25;;;17.80;99.90;;;;;;5071890;28;20021;-51
2023/06/17 01:13:42;;;;;;;8.40;6.93;;;17.80;99.90;;;;;;5071668;28;20021;-50
2023/06/17 01:16:08;;;;;;;7.57;6.03;;;17.80;99.90;;;;;;5053524;28;20531;-51
2023/06/17 01:18:34;;;;;;;9.98;6.75;;;17.80;99.90;;;;;;5053766;28;20059;-52
2023/06/17 01:21:03;;;;;;;9.95;6.25;;;17.70;99.90;;;;;;5071870;28;20033;-52
2023/06/17 01:23:32;;;;;;;10.10;6.95;;;17.70;99.90;;;;;;5071525;28;20096;-48
2023/06/17 01:25:58;;;;;;;12.63;7.13;;;17.60;99.90;;;;;;5071370;28;20036;-56
2023/06/17 01:28:24;;;;;;;10.15;6.88;;;17.60;99.90;;;;;;5053707;28;20024;-51
2023/06/17 01:30:56;;;;;;;6.20;5.60;;;17.60;99.90;;;;;;5069632;28;20424;-49
2023/06/17 01:33:23;;;;;;;8.65;6.80;;;17.60;99.90;;;;;;5071435;28;20097;-54
2023/06/17 01:36:04;;;;;;;14.18;7.20;;;17.60;99.90;;;;;;5053503;28;20013;-54
2023/06/17 01:38:43;;;;;;;8.13;6.43;;;17.60;99.90;;;;;;5054477;28;20032;-56
2023/06/17 01:41:17;;;;;;;7.03;5.93;;;17.60;99.90;;;;;;5072238;28;20031;-52
2023/06/17 01:43:43;;;;;;;8.98;6.13;;;17.60;99.90;;;;;;5072475;28;20104;-51
2023/06/17 01:46:11;;;;;;;9.07;6.72;;;17.50;99.90;;;;;;5071485;28;20063;-49
2023/06/17 01:48:38;;;;;;;13.07;6.85;;;17.50;99.90;;;;;;5071557;28;20107;-50
2023/06/17 01:51:04;;;;;;;7.95;6.18;;;17.40;99.90;;;;;;5071275;28;20027;-49
2023/06/17 01:53:30;;;;;;;8.60;6.38;;;17.30;99.90;;;;;;5070047;28;20016;-50
2023/06/17 01:55:55;;;;;;;7.88;6.65;;;17.30;99.90;;;;;;5071018;28;20032;-46
2023/06/17 01:58:21;;;;;;;8.18;6.70;;;17.20;99.90;;;;;;5071313;28;20078;-52
2023/06/17 02:00:46;;;;;;;7.03;6.30;;;17.20;99.90;;;;;;5071441;28;20024;-48
2023/06/17 02:03:12;;;;;;;10.95;5.97;;;17.20;99.90;;;;;;5069990;28;20099;-46
2023/06/17 02:05:37;;;;;;;10.88;6.60;;;17.10;99.90;;;;;;5052969;28;20488;-49
2023/06/17 02:08:04;;;;;;;9.27;7.22;;;17.10;99.90;;;;;;5053230;28;20044;-50
2023/06/17 02:10:30;;;;;;;6.72;5.95;;;17.10;99.90;;;;;;5071308;28;20035;-49
2023/06/17 02:12:55;;;;;;;9.95;6.00;;;17.20;99.90;;;;;;5071008;28;20029;-49
2023/06/17 02:15:21;;;;;;;17.67;6.97;;;17.20;99.90;;;;;;5070884;28;20063;-48
2023/06/17 02:17:46;;;;;;;13.25;6.70;;;17.10;99.90;;;;;;5071234;28;20071;-47
2023/06/17 02:20:12;;;;;;;7.85;6.72;;;17.10;99.90;;;;;;5071213;28;20025;-49
2023/06/17 02:22:38;;;;;;;7.72;6.85;;;17.00;99.90;;;;;;5070935;28;20095;-55
2023/06/17 02:25:05;;;;;;;9.60;6.68;;;16.90;99.90;;;;;;5070804;28;20028;-48
2023/06/17 02:27:30;;;;;;;8.95;6.28;;;16.90;99.90;;;;;;5071274;28;20035;-50
2023/06/17 02:29:56;;;;;;;9.48;7.15;;;16.90;99.90;;;;;;5071178;28;20036;-52
2023/06/17 02:32:22;;;;;;;9.68;6.93;;;16.90;99.90;;;;;;5070605;28;20449;-50
2023/06/17 02:34:50;;;;;;;8.75;6.32;;;16.90;99.90;;;;;;5069793;28;20048;-49
2023/06/17 02:37:16;;;;;;;10.25;7.13;;;16.90;99.90;;;;;;5070824;28;20023;-48
2023/06/17 02:39:42;;;;;;;6.43;5.80;;;16.90;99.90;;;;;;5071032;28;20111;-49
2023/06/17 02:42:08;;;;;;;7.18;6.50;;;16.90;99.90;;;;;;5071321;28;20079;-49
2023/06/17 02:44:35;;;;;;;7.97;6.28;;;16.90;99.90;;;;;;5074573;28;20027;-49
2023/06/17 02:47:01;;;;;;;9.55;6.28;;;16.90;99.90;;;;;;5074673;28;20021;-50
2023/06/17 02:49:27;;;;;;;10.38;6.35;;;16.90;99.90;;;;;;5074512;28;20024;-50
2023/06/17 02:51:53;;;;;;;7.75;5.95;;;16.90;99.90;;;;;;5074752;28;20031;-51
2023/06/17 02:54:18;;;;;;;11.25;6.28;;;16.90;99.90;;;;;;5072982;28;20058;-48
2023/06/17 02:56:44;;;;;;;7.50;5.78;;;16.90;99.90;;;;;;5074522;28;20025;-49
2023/06/17 02:59:10;;;;;;;7.82;6.88;;;16.90;99.90;;;;;;5074720;28;20052;-48
2023/06/17 03:01:42;;;;;;;7.28;6.35;;;16.90;99.90;;;;;;5075140;28;20025;-49
2023/06/17 03:04:08;;;;;;;8.88;6.88;;;16.90;99.90;;;;;;5073863;28;20043;-50
2023/06/17 03:06:34;;;;;;;9.05;6.53;;;16.90;99.90;;;;;;5074143;28;20028;-50
2023/06/17 03:09:00;;;;;;;8.63;6.85;;;16.80;99.90;;;;;;5073391;28;20035;-52
2023/06/17 03:11:28;;;;;;;7.50;6.80;;;16.80;99.90;;;;;;5074320;28;20029;-50
2023/06/17 03:13:54;;;;;;;10.45;7.13;;;16.70;99.90;;;;;;5055631;28;20025;-49
2023/06/17 03:16:20;;;;;;;9.80;7.00;;;16.70;99.90;;;;;;5074102;28;20012;-50
2023/06/17 03:18:47;;;;;;;7.57;6.80;;;16.70;99.90;;;;;;5074205;28;20441;-47
2023/06/17 03:21:12;;;;;;;7.88;7.07;;;16.70;99.90;;;;;;5074273;28;20488;-48
2023/06/17 03:23:40;;;;;;;10.45;7.45;;;16.70;99.90;;;;;;5073666;28;20036;-49
2023/06/17 03:26:06;;;;;;;9.57;6.53;;;16.70;99.90;;;;;;5073756;28;20528;-50
2023/06/17 03:28:31;;;;;;;8.20;6.85;;;16.70;99.90;;;;;;5073889;28;20063;-48
2023/06/17 03:30:57;;;;;;;8.18;7.05;;;16.60;99.90;;;;;;5073930;28;20043;-49
2023/06/17 03:33:22;;;;;;;11.35;7.30;;;16.60;99.90;;;;;;5073477;28;20044;-48
2023/06/17 03:35:48;;;;;;;13.82;8.10;;;16.50;99.90;;;;;;5073592;28;20107;-51
2023/06/17 03:38:14;;;;;;;9.98;6.68;;;16.50;99.90;;;;;;5055783;28;20021;-49
2023/06/17 03:40:39;;;;;;;9.48;7.25;;;16.50;99.90;;;;;;5072943;28;20024;-47
2023/06/17 03:43:05;;;;;;;11.70;7.45;;;16.60;99.90;;;;;;5073683;28;20078;-50
2023/06/17 03:45:32;;;;;;;7.50;6.47;;;16.50;99.90;;;;;;5072893;28;20092;-48
2023/06/17 03:47:58;;;;;;;7.53;6.60;;;16.50;99.90;;;;;;5073547;28;20086;-51
2023/06/17 03:50:24;;;;;;;8.55;6.60;;;16.50;99.90;;;;;;5073531;28;20017;-50
2023/06/17 03:52:50;;;;;;;12.93;7.38;;;16.50;99.90;;;;;;5071970;28;20021;-49
2023/06/17 03:55:16;;;;;;;7.80;6.60;;;16.50;99.90;;;;;;5072068;28;20438;-50
2023/06/17 03:57:42;;;;;;;13.73;6.93;;;16.40;99.90;;;;;;5073313;28;20037;-51
2023/06/17 04:00:08;;;;;;;11.05;7.20;;;16.40;99.90;;;;;;5073480;28;20131;-50
2023/06/17 04:02:33;;;;;;;8.98;7.22;;;16.40;99.90;;;;;;5072714;28;20154;-52
2023/06/17 04:05:00;;;;;;;12.27;7.40;;;16.40;99.90;;;;;;5072997;28;20137;-47
2023/06/17 04:07:27;;;;;;;8.77;7.43;;;16.40;99.90;;;;;;5073205;28;20020;-51
2023/06/17 04:09:53;;;;;;;8.30;7.05;;;16.40;99.90;;;;;;5073284;28;20070;-48
2023/06/17 04:12:18;;;;;;;8.85;6.90;;;16.40;99.90;;;;;;5072602;28;20430;-51
2023/06/17 04:14:44;;;;;;;7.82;6.53;;;16.40;99.90;;;;;;5071632;28;20027;-50
2023/06/17 04:17:10;;;;;;;7.60;6.85;;;16.40;99.90;;;;;;5072898;28;20111;-50
2023/06/17 04:19:37;;;;;;;7.85;6.95;;;16.50;99.90;;;;;;5073008;28;20025;-50
2023/06/17 04:22:05;;;;;;;8.13;7.00;;;16.60;99.90;;;;;;5072987;28;20100;-50
2023/06/17 04:24:31;;;;;;;8.82;7.93;;;16.60;99.90;;;;;;5054573;28;20410;-51
2023/06/17 04:26:56;;;;;;;7.90;6.35;;;16.80;99.90;;;;;;5072715;28;20020;-52
2023/06/17 04:29:22;;;;;;;10.02;6.60;;;16.80;99.90;;;;;;5072736;28;20510;-50
2023/06/17 04:31:47;;;;;;;7.47;6.70;;;16.80;99.90;;;;;;5054527;28;20111;-48
2023/06/17 04:34:21;;;;;;;8.52;6.65;;;16.90;99.90;;;;;;5071813;28;20074;-47
2023/06/17 04:36:57;;;;;;;7.38;6.68;;;17.00;99.90;;;;;;5072495;28;20108;-54
2023/06/17 04:39:28;;;;;;;8.95;7.07;;;17.10;99.90;;;;;;5072503;28;20537;-48
2023/06/17 04:41:54;;;;;;;7.40;6.70;;;17.10;99.90;;;;;;5072421;28;20446;-47
2023/06/17 04:44:20;;;;;;;14.05;7.18;;;17.30;99.90;;;;;;5071719;28;20025;-47
2023/06/17 04:46:46;;;;;;;11.60;7.28;;;17.40;99.90;;;;;;5072449;28;20059;-49
2023/06/17 04:49:11;;;;;;;9.45;6.35;;;17.60;99.90;;;;;;5071371;28;20079;-51
2023/06/17 04:51:40;;;;;;;8.20;7.07;;;17.60;99.90;;;;;;5072193;28;20020;-53
2023/06/17 04:54:06;;;;;;;8.65;6.60;;;17.70;99.90;;;;;;5070571;28;20029;-51
2023/06/17 04:56:32;;;;;;;11.32;7.63;;;18.10;99.90;;;;;;5072033;28;20017;-52
2023/06/17 04:58:57;;;;;;;10.23;7.65;;;18.80;99.90;;;;;;5072211;28;20423;-50
2023/06/17 05:01:23;;;;;;;9.88;7.63;;;19.70;99.40;;;;;;5072068;28;20029;-49
2023/06/17 05:03:48;;;;;;;10.77;7.85;;;20.50;98.00;;;;;;5071381;28;20403;-48
2023/06/17 05:06:14;;;;;;;8.40;7.18;;;21.40;96.40;;;;;;5071710;28;20028;-51
2023/06/17 05:08:39;;;;;;;10.13;7.05;;;22.00;94.40;;;;;;5072011;28;20435;-47
2023/06/17 05:11:05;;;;;;;8.45;7.38;;;22.60;93.10;;;;;;5071832;28;20060;-51
2023/06/17 05:13:30;;;;;;;12.80;8.20;;;23.40;92.00;;;;;;5071472;28;20063;-49
2023/06/17 05:15:56;;;;;;;9.00;7.40;;;23.20;91.10;;;;;;5071501;28;20125;-55
2023/06/17 05:18:21;;;;;;;9.82;7.43;;;23.70;90.80;;;;;;5092749;22;20060;-51
2023/06/17 05:20:47;;;;;;;10.77;6.68;;;24.20;90.10;;;;;;5071834;28;20023;-50
2023/06/17 05:23:12;;;;;;;8.65;7.10;;;24.60;89.40;;;;;;5071306;28;20035;-50
2023/06/17 05:25:38;;;;;;;8.85;7.05;;;25.00;87.80;;;;;;5070536;28;20052;-50
2023/06/17 05:28:06;;;;;;;13.38;7.60;;;25.30;86.00;;;;;;5071878;28;20074;-51
2023/06/17 05:30:32;;;;;;;12.88;7.80;;;24.90;85.40;;;;;;5071667;28;20017;-50
2023/06/17 05:32:57;;;;;;;9.40;7.00;;;24.80;85.50;;;;;;5071070;28;20024;-51
2023/06/17 05:35:23;;;;;;;7.78;7.07;;;24.80;85.80;;;;;;5071156;28;20025;-51
2023/06/17 05:37:48;;;;;;;8.85;7.80;;;25.00;85.10;;;;;;5071671;28;20504;-50
2023/06/17 05:40:14;;;;;;;10.75;7.03;;;25.50;83.80;;;;;;5071830;28;20303;-51
2023/06/17 05:42:40;;;;;;;8.13;6.80;;;25.70;83.70;;;;;;5071155;28;20021;-50
2023/06/17 05:45:06;;;;;;;9.18;8.05;;;25.70;83.10;;;;;;5071027;28;20029;-53
2023/06/17 05:47:32;;;;;;;9.02;8.13;;;25.70;82.20;;;;;;5071309;28;20109;-51
2023/06/17 05:49:57;;;;;;;12.65;6.97;;;26.00;82.00;;;;;;5071467;28;20060;-48
2023/06/17 05:52:23;;;;;;;9.50;7.45;;;25.80;81.90;;;;;;5069719;28;20518;-52
2023/06/17 05:54:49;;;;;;;11.43;7.32;;;26.00;81.70;;;;;;5071038;28;20019;-51
2023/06/17 05:57:15;;;;;;;10.27;7.22;;;26.10;81.00;;;;;;5071422;28;20214;-51
2023/06/17 05:59:40;;;;;;;7.70;6.97;;;26.30;80.50;;;;;;5070622;28;20017;-50
2023/06/17 06:02:06;;;;;;;7.72;7.03;;;26.70;80.10;;;;;;5071232;28;20522;-48
2023/06/17 06:04:31;;;;;;;7.32;6.63;;;27.10;79.30;;;;;;5071401;28;20025;-58
2023/06/17 06:06:57;;;;;;;9.18;6.38;;;27.70;78.70;;;;;;5065553;28;20029;-51
2023/06/17 06:09:22;;;;;;;8.82;6.45;;;28.10;77.10;;;;;;5071577;28;20033;-50
2023/06/17 06:11:48;;;;;;;9.65;6.68;;;27.80;76.10;;;;;;5065555;28;20055;-50
2023/06/17 06:14:14;;;;;;;7.43;6.22;;;27.70;77.00;;;;;;5050965;28;20025;-51
2023/06/17 06:16:39;;;;;;;10.13;6.47;;;28.00;76.00;;;;;;5051432;28;20101;-56
2023/06/17 06:19:05;;;;;;;8.00;5.63;;;28.00;75.40;;;;;;5055431;28;20061;-57
2023/06/17 06:21:30;;;;;;;11.75;6.93;;;28.40;75.30;;;;;;5064146;28;20028;-55
2023/06/17 06:23:56;;;;;;;8.55;5.63;;;28.90;74.60;;;;;;5074580;28;20063;-55
2023/06/17 06:26:21;;;;;;;6.20;5.60;;;29.10;74.50;;;;;;5063796;28;20021;-58
2023/06/17 06:28:47;;;;;;;8.07;5.80;;;29.50;74.10;;;;;;5057723;28;20400;-54
2023/06/17 06:31:12;;;;;;;10.25;5.75;;;29.60;72.70;;;;;;5075090;28;20028;-55
2023/06/17 06:33:38;;;;;;;11.63;5.78;;;29.60;72.70;;;;;;5072696;28;20024;-54
2023/06/17 06:36:03;;;;;;;6.68;6.07;;;30.00;72.60;;;;;;5063765;28;20036;-53
2023/06/17 06:38:29;;;;;;;6.70;5.53;;;30.40;71.60;;;;;;5064383;28;20496;-55
2023/06/17 06:40:55;;;;;;;6.20;5.57;;;30.80;70.00;;;;;;5057532;28;20100;-49
2023/06/17 06:43:20;;;;;;;7.45;5.93;;;31.00;69.70;;;;;;5054177;28;20021;-52
2023/06/17 06:45:46;;;;;;;7.18;5.60;;;31.20;69.50;;;;;;5054250;28;20017;-54
2023/06/17 06:48:12;;;;;;;5.50;5.00;;;31.30;68.60;;;;;;5054659;28;20074;-52
2023/06/17 06:50:38;;;;;;;8.63;5.50;;;31.40;68.40;;;;;;5054462;28;20029;-51
2023/06/17 06:53:03;;;;;;;10.63;5.55;;;31.50;68.00;;;;;;5071588;28;20025;-56
2023/06/17 06:55:29;;;;;;;8.10;5.30;;;31.30;67.30;;;;;;5074181;28;20062;-51
2023/06/17 06:57:55;;;;;;;6.35;5.68;;;31.50;67.80;;;;;;5074219;28;20020;-55
2023/06/17 07:00:21;;;;;;;5.78;5.28;;;31.80;67.90;;;;;;5074513;28;20016;-48
2023/06/17 07:02:47;;;;;;;6.82;4.53;;;32.70;66.50;;;;;;5073985;28;20029;-54
2023/06/17 07:05:12;;;;;;;9.40;4.90;;;33.30;66.00;;;;;;5072135;28;20033;-50
2023/06/17 07:07:38;;;;;;;11.13;4.85;;;33.50;65.40;;;;;;5074222;28;20055;-55
2023/06/17 07:10:04;;;;;;;5.03;4.63;;;34.10;64.80;;;;;;5074211;28;20390;-53
2023/06/17 07:12:29;;;;;;;5.55;4.70;;;34.50;64.40;;;;;;5073829;28;20103;-53
2023/06/17 07:14:55;;;;;;;11.88;6.95;;;34.80;64.30;;;;;;5055858;28;20028;-53
2023/06/17 07:17:21;;;;;;;9.30;4.72;;;34.40;63.70;;;;;;5071207;28;20120;-53
2023/06/17 07:19:46;;;;;;;5.90;4.55;;;34.60;63.40;;;;;;5074144;28;20107;-55
2023/06/17 07:22:12;;;;;;;7.32;5.60;;;34.00;64.20;;;;;;5064074;28;20029;-55
2023/06/17 07:24:38;;;;;;;6.70;4.55;;;33.70;64.50;;;;;;5072259;28;20380;-51
2023/06/17 07:27:03;;;;;;;7.75;5.05;;;34.10;64.60;;;;;;5060276;28;20021;-60
2023/06/17 07:29:30;;;;;;;6.03;4.53;;;34.70;64.30;;;;;;5072716;28;20441;-57
2023/06/17 07:31:55;;;;;;;5.95;4.50;;;34.30;63.40;;;;;;5062645;28;20028;-56
2023/06/17 07:34:21;;;;;;;6.85;5.18;;;34.20;63.10;;;;;;5052360;28;20396;-59
2023/06/17 07:36:52;;;;;;;5.65;4.38;;;34.30;62.90;;;;;;5054338;28;20033;-53
2023/06/17 07:39:18;;;;;;;4.53;4.07;;;34.80;62.60;;;;;;5039150;28;20048;-53
2023/06/17 07:41:44;;;;;;;5.43;4.15;;;34.30;62.10;;;;;;5072157;28;20024;-50
2023/06/17 07:44:09;;;;;;;6.45;4.60;;;34.90;61.70;;;;;;5071418;28;20590;-54
2023/06/17 07:46:35;;;;;;;6.45;4.25;;;34.60;60.90;;;;;;5072168;28;20052;-54
2023/06/17 07:49:00;;;;;;;7.93;4.50;;;33.70;61.70;;;;;;5072481;28;20557;-51
2023/06/17 07:51:26;;;;;;;5.18;3.83;;;32.40;62.50;;;;;;5068009;28;20036;-57
2023/06/17 07:53:51;;;;;;;4.68;4.20;;;32.80;62.70;;;;;;5053168;28;20025;-52
2023/06/17 07:56:19;;;;;;;6.25;4.10;;;33.70;61.60;;;;;;5054722;28;20110;-57
2023/06/17 07:58:45;;;;;;;6.60;3.95;;;34.70;60.00;;;;;;5050962;28;20124;-54
2023/06/17 08:01:11;;;;;;;4.95;3.72;;;34.40;60.20;;;;;;5061486;28;20048;-59
2023/06/17 08:03:37;;;;;;;4.57;3.85;;;34.40;59.90;;;;;;5071468;28;20391;-53
2023/06/17 08:06:03;;;;;;;6.38;4.25;;;34.40;59.10;;;;;;5053496;28;20025;-55
2023/06/17 08:08:29;;;;;;;5.05;3.83;;;34.40;60.20;;;;;;5072272;28;20020;-51
2023/06/17 08:10:54;;;;;;;4.95;4.28;;;35.00;59.90;;;;;;5049591;28;20025;-59
2023/06/17 08:13:20;;;;;;;5.57;4.90;;;33.60;60.10;;;;;;5051965;28;20074;-49
2023/06/17 08:15:45;;;;;;;4.68;4.15;;;32.30;61.90;;;;;;5071736;28;20048;-55
2023/06/17 08:18:11;;;;;;;6.05;4.72;;;32.20;62.70;;;;;;5072146;28;20546;-51
2023/06/17 08:20:36;;;;;;;5.07;4.55;;;32.80;62.70;;;;;;5066941;28;20435;-55
2023/06/17 08:23:02;;;;;;;6.18;4.72;;;32.00;63.10;;;;;;5063700;28;20074;-49
2023/06/17 08:25:28;;;;;;;9.27;4.95;;;31.70;64.50;;;;;;5071431;28;20517;-55
2023/06/17 08:27:53;;;;;;;6.20;5.05;;;31.90;64.10;;;;;;5071113;28;20040;-54
2023/06/17 08:30:19;;;;;;;7.22;4.53;;;31.80;64.10;;;;;;5071140;28;20115;-54
2023/06/17 08:32:44;;;;;;;6.28;5.30;;;31.50;64.80;;;;;;5070902;28;20031;-53
2023/06/17 08:35:10;;;;;;;5.82;5.30;;;31.60;65.10;;;;;;5072502;28;20031;-56
2023/06/17 08:37:35;;;;;;;7.25;5.00;;;32.10;65.30;;;;;;5070706;28;20024;-53
2023/06/17 08:40:04;;;;;;;7.18;5.35;;;32.30;64.50;;;;;;5071933;28;20016;-52
2023/06/17 08:42:29;;;;;;;6.20;4.82;;;32.50;64.70;;;;;;5070395;28;20020;-56
2023/06/17 08:44:58;;;;;;;15.52;5.95;;;32.40;63.70;;;;;;5069178;28;20033;-54
2023/06/17 08:47:25;;;;;;;7.18;5.53;;;32.40;63.30;;;;;;5066554;28;20500;-57
2023/06/17 08:49:55;;;;;;;8.90;5.40;;;32.20;63.40;;;;;;5071415;28;20412;-62
2023/06/17 08:52:22;;;;;;;8.18;4.50;;;32.20;63.60;;;;;;5068026;28;20035;-56
2023/06/17 08:54:48;;;;;;;9.02;4.63;;;31.80;64.40;;;;;;5070405;28;20111;-56
2023/06/17 08:57:14;;;;;;;6.72;5.63;;;32.00;64.90;;;;;;5073571;28;20044;-56
2023/06/17 08:59:41;;;;;;;20.23;15.98;;;32.10;64.60;;;;;;5070895;28;20046;-56
2023/06/17 09:02:07;;;;;;;6.82;6.05;;;32.30;64.90;;;;;;5072291;28;20056;-57
2023/06/17 09:04:35;;;;;;;12.77;5.68;;;32.30;63.90;;;;;;5070534;28;20031;-56
2023/06/17 09:07:00;;;;;;;8.27;4.50;;;32.10;63.20;;;;;;5069233;28;20542;-57
2023/06/17 09:09:26;;;;;;;7.65;4.32;;;31.70;63.40;;;;;;5054569;28;20024;-53
2023/06/17 09:11:52;;;;;;;4.53;4.13;;;31.60;63.70;;;;;;5066069;28;20028;-55
2023/06/17 09:14:19;;;;;;;9.57;4.53;;;31.10;63.50;;;;;;5072478;28;20032;-59
2023/06/17 09:16:45;;;;;;;24.55;4.72;;;30.70;64.20;;;;;;5071648;28;20364;-56
2023/06/17 09:19:14;;;;;;;8.63;4.63;;;30.60;63.90;;;;;;5066447;28;20549;-52
2023/06/17 09:21:39;;;;;;;5.00;4.50;;;30.20;63.30;;;;;;5067371;28;20433;-50
2023/06/17 09:24:11;;;;;;;5.70;4.93;;;30.20;64.30;;;;;;5070102;28;20120;-53
2023/06/17 09:26:41;;;;;;;12.13;4.80;;;30.30;64.00;;;;;;5070331;28;20020;-52
2023/06/17 09:29:08;;;;;;;5.93;3.92;;;30.50;63.50;;;;;;5069231;28;20089;-59
2023/06/17 09:31:46;;;;;;;6.82;4.80;;;30.60;63.80;;;;;;5070541;28;20025;-52
2023/06/17 09:34:12;;;;;;;7.78;3.97;;;30.60;62.80;;;;;;5053733;28;20066;-54
2023/06/17 09:36:40;;;;;;;7.28;4.15;;;30.70;63.40;;;;;;5073154;28;20029;-60
2023/06/17 09:39:08;;;;;;;5.65;4.28;;;30.40;61.10;;;;;;5073034;28;20052;-52
2023/06/17 09:41:37;;;;;;;5.18;3.90;;;30.10;63.20;;;;;;5070239;28;20103;-54
2023/06/17 09:44:03;;;;;;;4.95;3.83;;;29.60;60.80;;;;;;5069537;28;20064;-63
2023/06/17 09:46:29;;;;;;;5.82;4.07;;;29.60;61.80;;;;;;5053836;28;20074;-54
2023/06/17 09:48:57;;;;;;;9.65;4.35;;;29.40;61.70;;;;;;5077269;28;20153;-60
2023/06/17 09:51:23;;;;;;;8.30;4.07;;;29.60;62.60;;;;;;5053395;28;20024;-52
2023/06/17 09:53:52;;;;;;;4.72;4.20;;;29.50;60.60;;;;;;5064513;28;20057;-53
2023/06/17 09:56:19;;;;;;;5.75;3.80;;;29.50;59.20;;;;;;5067004;28;20407;-52
2023/06/17 09:58:45;;;;;;;5.97;4.00;;;29.40;58.50;;;;;;5065049;28;20044;-53
2023/06/17 10:01:12;;;;;;;7.63;4.20;;;29.30;59.50;;;;;;5052409;28;20481;-54
2023/06/17 10:03:39;;;;;;;5.25;3.85;;;29.30;59.60;;;;;;5070402;28;20093;-59
2023/06/17 10:06:11;;;;;;;6.22;4.15;;;29.20;58.70;;;;;;5070587;28;20020;-55
2023/06/17 10:08:40;;;;;;;8.23;4.18;;;29.10;58.70;;;;;;5068826;28;20086;-57
2023/06/17 10:11:05;;;;;;;8.30;4.38;;;29.00;59.10;;;;;;5060435;28;20395;-60
2023/06/17 10:13:41;;;;;;;6.15;3.80;;;29.00;59.80;;;;;;5070017;28;20107;-58
2023/06/17 10:16:10;;;;;;;4.47;3.88;;;28.90;58.80;;;;;;5078047;28;20096;-55
2023/06/17 10:18:38;;;;;;;5.93;5.13;;;28.90;59.30;;;;;;5063999;28;20036;-57
2023/06/17 10:21:05;;;;;;;34.00;24.25;;;28.90;59.70;;;;;;5057060;28;20458;-57
2023/06/17 10:23:32;;;;;;;5.50;4.40;;;28.80;61.30;;;;;;5070298;28;20020;-61
2023/06/17 10:25:58;;;;;;;7.65;4.35;;;28.60;61.70;;;;;;5067681;28;20028;-59
2023/06/17 10:28:23;;;;;;;4.88;4.32;;;28.40;61.50;;;;;;5068620;28;20024;-57
2023/06/17 10:30:51;;;;;;;4.70;3.70;;;28.60;61.50;;;;;;5070054;28;20028;-58
2023/06/17 10:33:26;;;;;;;5.10;4.32;;;28.60;61.60;;;;;;5065443;28;20016;-56
2023/06/17 10:36:07;;;;;;;5.93;4.13;;;28.80;60.70;;;;;;5069268;28;20017;-55
2023/06/17 10:38:34;;;;;;;5.30;3.83;;;28.80;61.50;;;;;;5058516;28;20032;-59
2023/06/17 10:40:59;;;;;;;7.25;4.18;;;28.80;61.00;;;;;;5048792;28;20083;-57
2023/06/17 10:43:25;;;;;;;12.85;3.67;;;28.70;60.60;;;;;;5069852;28;20553;-44
2023/06/17 10:45:54;;;;;;;5.25;4.03;;;28.50;61.20;;;;;;5070857;28;20142;-47
2023/06/17 10:48:28;;;;;;;4.30;4.00;;;28.40;61.20;;;;;;5070520;28;20508;-45
2023/06/17 10:51:03;;;;;;;4.75;4.28;;;28.30;61.50;;;;;;5069841;28;20028;-46
2023/06/17 10:53:35;;;;;;;4.50;4.00;;;28.30;62.00;;;;;;5065714;28;20111;-49
2023/06/17 10:56:02;;;;;;;5.45;4.00;;;28.40;61.80;;;;;;5068735;28;20039;-49
2023/06/17 10:58:31;;;;;;;9.73;4.25;;;28.40;61.60;;;;;;5070947;28;20098;-46
2023/06/17 11:01:08;;;;;;;5.88;3.75;;;28.40;61.40;;;;;;5071018;28;20021;-46
2023/06/17 11:03:34;;;;;;;4.28;3.70;;;28.30;60.10;;;;;;5053786;28;20054;-46
2023/06/17 11:06:01;;;;;;;6.03;4.00;;;28.30;62.10;;;;;;5074204;28;20496;-46
2023/06/17 11:08:30;;;;;;;6.18;3.72;;;28.20;60.90;;;;;;5074451;28;20427;-48
2023/06/17 11:11:14;;;;;;;9.15;3.88;;;28.20;60.10;;;;;;5074096;28;20020;-48
2023/06/17 11:13:47;;;;;;;5.18;3.90;;;28.10;61.00;;;;;;5075204;28;20101;-47
2023/06/17 11:16:12;;;;;;;4.53;3.88;;;28.00;60.50;;;;;;5074867;28;20013;-47
2023/06/17 11:18:42;;;;;;;4.00;3.60;;;27.90;60.10;;;;;;5074672;28;20040;-48
2023/06/17 11:21:09;;;;;;;8.02;4.10;;;28.00;60.40;;;;;;5074316;28;20028;-50
2023/06/17 11:23:38;;;;;;;4.72;4.22;;;28.10;59.70;;;;;;5073542;28;20090;-46
2023/06/17 11:26:05;;;;;;;6.13;3.63;;;28.00;60.00;;;;;;5073747;28;20021;-49
2023/06/17 11:28:31;;;;;;;41.78;32.42;;;28.10;60.90;;;;;;5076177;28;20426;-46
2023/06/17 11:30:57;;;;;;;8.00;6.60;;;28.20;60.10;;;;;;5074393;28;20031;-47
2023/06/17 11:33:23;;;;;;;5.85;3.88;;;28.30;60.50;;;;;;5055348;28;20024;-45
2023/06/17 11:35:51;;;;;;;4.47;3.90;;;28.30;60.10;;;;;;5071260;28;20526;-45
2023/06/17 11:38:18;;;;;;;7.15;4.03;;;28.30;58.40;;;;;;5073300;28;20042;-46
2023/06/17 11:40:44;;;;;;;7.68;4.22;;;28.20;59.10;;;;;;5073732;28;20051;-48
2023/06/17 11:43:10;;;;;;;4.10;3.80;;;28.20;59.10;;;;;;5073252;28;20017;-48
2023/06/17 11:45:36;;;;;;;6.60;3.78;;;28.20;59.00;;;;;;5066589;28;20031;-44
2023/06/17 11:48:06;;;;;;;5.18;3.90;;;28.30;58.20;;;;;;5072852;28;20028;-45
2023/06/17 11:50:32;;;;;;;7.80;4.30;;;28.40;57.60;;;;;;5073235;28;20047;-45
2023/06/17 11:52:57;;;;;;;6.00;4.13;;;28.40;58.40;;;;;;5073065;28;20515;-44
2023/06/17 11:55:33;;;;;;;7.40;4.20;;;28.50;57.60;;;;;;5072562;28;20024;-46
2023/06/17 11:58:03;;;;;;;9.35;4.43;;;28.50;58.80;;;;;;5071860;28;20115;-44
2023/06/17 12:00:35;;;;;;;4.13;3.72;;;28.40;58.00;;;;;;5073538;28;20386;-48
2023/06/17 12:03:05;;;;;;;8.23;4.13;;;28.30;58.70;;;;;;5069992;28;20088;-44
2023/06/17 12:05:31;;;;;;;5.85;4.10;;;28.10;59.40;;;;;;5067104;28;20025;-46
2023/06/17 12:08:01;;;;;;;11.20;4.03;;;28.10;60.30;;;;;;5062250;28;20410;-46
2023/06/17 12:10:26;;;;;;;4.50;4.10;;;28.10;60.60;;;;;;5053066;28;20025;-48
2023/06/17 12:12:56;;;;;;;4.18;3.60;;;28.30;60.00;;;;;;5052372;28;20039;-48
2023/06/17 12:15:27;;;;;;;4.22;3.63;;;28.40;59.10;;;;;;5051149;28;20017;-52
2023/06/17 12:17:53;;;;;;;6.03;4.07;;;28.50;59.50;;;;;;5055465;28;20036;-47
2023/06/17 12:20:20;;;;;;;4.65;3.65;;;28.40;58.90;;;;;;5050969;28;20055;-49
2023/06/17 12:22:48;;;;;;;5.25;4.03;;;28.20;57.60;;;;;;5052290;28;20451;-48
2023/06/17 12:25:13;;;;;;;6.07;3.97;;;28.30;56.90;;;;;;5071351;28;20029;-50
2023/06/17 12:27:41;;;;;;;5.13;3.65;;;28.40;58.70;;;;;;5071712;28;20187;-49
2023/06/17 12:30:08;;;;;;;4.10;3.70;;;28.30;58.30;;;;;;5070818;28;20081;-49
2023/06/17 12:32:34;;;;;;;6.63;3.58;;;28.40;59.40;;;;;;5062424;28;20442;-47
2023/06/17 12:34:59;;;;;;;7.68;3.95;;;28.40;58.70;;;;;;5051967;28;20108;-52
2023/06/17 12:37:27;;;;;;;7.18;3.67;;;28.50;58.10;;;;;;5057609;28;20050;-47
2023/06/17 12:39:55;;;;;;;3.90;3.50;;;28.50;56.40;;;;;;5052248;28;20025;-49
2023/06/17 12:42:21;;;;;;;5.50;3.63;;;28.50;56.60;;;;;;5051650;28;20025;-49
2023/06/17 12:44:48;;;;;;;7.47;4.28;;;28.40;57.40;;;;;;5060660;28;20023;-48